sensor_id;sensor_type;location;lat;lon;timestamp;P1;durP1;ratioP1;P2;durP2;ratioP2
37097;SDS011;63608;49.572;12.348;2023-04-03T00:01:40;3.20;;;3.10;;
37097;SDS011;63608;49.572;12.348;2023-04-03T00:03:43;3.53;;;3.23;;
37097;SDS011;63608;49.572;12.348;2023-04-03T00:05:45;3.70;;;3.40;;
37097;SDS011;63608;49.572;12.348;2023-04-03T00:07:47;3.83;;;3.60;;
37097;SDS011;63608;49.572;12.348;2023-04-03T00:09:50;3.20;;;3.10;;
37097;SDS011;63608;49.572;12.348;2023-04-03T00:11:56;3.93;;;3.60;;
37097;SDS011;63608;49.572;12.348;2023-04-03T00:14:01;3.17;;;3.07;;
37097;SDS011;63608;49.572;12.348;2023-04-03T00:16:03;3.10;;;3.00;;
37097;SDS011;63608;49.572;12.348;2023-04-03T00:18:06;3.40;;;3.20;;
37097;SDS011;63608;49.572;12.348;2023-04-03T00:20:09;3.70;;;3.50;;
37097;SDS011;63608;49.572;12.348;2023-04-03T00:22:12;3.20;;;3.00;;
37097;SDS011;63608;49.572;12.348;2023-04-03T00:24:14;3.53;;;3.20;;
37097;SDS011;63608;49.572;12.348;2023-04-03T00:26:21;3.77;;;3.57;;
37097;SDS011;63608;49.572;12.348;2023-04-03T00:28:25;3.50;;;3.30;;
37097;SDS011;63608;49.572;12.348;2023-04-03T00:30:28;3.20;;;3.00;;
37097;SDS011;63608;49.572;12.348;2023-04-03T00:35:27;3.20;;;3.00;;
37097;SDS011;63608;49.572;12.348;2023-04-03T00:37:30;3.50;;;3.40;;
37097;SDS011;63608;49.572;12.348;2023-04-03T00:39:32;3.90;;;3.70;;
37097;SDS011;63608;49.572;12.348;2023-04-03T00:41:34;3.40;;;3.30;;
37097;SDS011;63608;49.572;12.348;2023-04-03T00:43:39;4.10;;;3.67;;
37097;SDS011;63608;49.572;12.348;2023-04-03T00:45:43;4.20;;;3.90;;
37097;SDS011;63608;49.572;12.348;2023-04-03T00:47:47;5.00;;;3.70;;
37097;SDS011;63608;49.572;12.348;2023-04-03T00:49:50;3.60;;;3.40;;
37097;SDS011;63608;49.572;12.348;2023-04-03T00:52:14;3.70;;;3.40;;
37097;SDS011;63608;49.572;12.348;2023-04-03T00:54:18;3.27;;;3.10;;
37097;SDS011;63608;49.572;12.348;2023-04-03T00:56:21;3.70;;;3.50;;
37097;SDS011;63608;49.572;12.348;2023-04-03T00:58:28;3.57;;;3.47;;
37097;SDS011;63608;49.572;12.348;2023-04-03T01:00:37;3.90;;;3.40;;
37097;SDS011;63608;49.572;12.348;2023-04-03T01:02:46;3.97;;;3.67;;
37097;SDS011;63608;49.572;12.348;2023-04-03T01:04:48;4.07;;;3.70;;
37097;SDS011;63608;49.572;12.348;2023-04-03T01:06:50;3.80;;;3.60;;
37097;SDS011;63608;49.572;12.348;2023-04-03T01:08:53;3.60;;;3.30;;
37097;SDS011;63608;49.572;12.348;2023-04-03T01:10:59;3.90;;;3.70;;
37097;SDS011;63608;49.572;12.348;2023-04-03T01:13:07;3.80;;;3.50;;
37097;SDS011;63608;49.572;12.348;2023-04-03T01:15:23;3.67;;;3.50;;
37097;SDS011;63608;49.572;12.348;2023-04-03T01:17:29;3.90;;;3.70;;
37097;SDS011;63608;49.572;12.348;2023-04-03T01:19:33;4.10;;;3.90;;
37097;SDS011;63608;49.572;12.348;2023-04-03T01:21:41;3.60;;;3.40;;
37097;SDS011;63608;49.572;12.348;2023-04-03T01:26:13;3.40;;;3.20;;
37097;SDS011;63608;49.572;12.348;2023-04-03T01:28:18;3.87;;;3.67;;
37097;SDS011;63608;49.572;12.348;2023-04-03T01:30:21;4.00;;;3.80;;
37097;SDS011;63608;49.572;12.348;2023-04-03T01:32:28;3.73;;;3.60;;
37097;SDS011;63608;49.572;12.348;2023-04-03T01:34:38;3.80;;;3.60;;
37097;SDS011;63608;49.572;12.348;2023-04-03T01:36:40;4.10;;;3.80;;
37097;SDS011;63608;49.572;12.348;2023-04-03T01:38:43;3.37;;;3.27;;
37097;SDS011;63608;49.572;12.348;2023-04-03T01:40:46;4.40;;;4.10;;
37097;SDS011;63608;49.572;12.348;2023-04-03T01:42:50;4.13;;;3.93;;
37097;SDS011;63608;49.572;12.348;2023-04-03T01:44:52;3.23;;;3.13;;
37097;SDS011;63608;49.572;12.348;2023-04-03T01:46:55;3.50;;;3.30;;
37097;SDS011;63608;49.572;12.348;2023-04-03T01:49:01;3.67;;;3.40;;
37097;SDS011;63608;49.572;12.348;2023-04-03T01:51:03;3.67;;;3.40;;
37097;SDS011;63608;49.572;12.348;2023-04-03T01:53:05;3.53;;;3.37;;
37097;SDS011;63608;49.572;12.348;2023-04-03T01:55:08;4.13;;;3.80;;
37097;SDS011;63608;49.572;12.348;2023-04-03T01:57:10;3.33;;;3.23;;
37097;SDS011;63608;49.572;12.348;2023-04-03T01:59:15;4.00;;;3.53;;
37097;SDS011;63608;49.572;12.348;2023-04-03T02:01:19;4.27;;;3.97;;
37097;SDS011;63608;49.572;12.348;2023-04-03T02:03:21;3.73;;;3.53;;
37097;SDS011;63608;49.572;12.348;2023-04-03T02:05:27;3.47;;;3.37;;
37097;SDS011;63608;49.572;12.348;2023-04-03T02:07:29;3.60;;;3.40;;
37097;SDS011;63608;49.572;12.348;2023-04-03T02:09:34;3.57;;;3.27;;
37097;SDS011;63608;49.572;12.348;2023-04-03T02:11:40;3.80;;;3.60;;
37097;SDS011;63608;49.572;12.348;2023-04-03T02:13:43;3.77;;;3.50;;
37097;SDS011;63608;49.572;12.348;2023-04-03T02:15:45;3.20;;;3.10;;
37097;SDS011;63608;49.572;12.348;2023-04-03T02:17:48;4.00;;;3.80;;
37097;SDS011;63608;49.572;12.348;2023-04-03T02:19:50;3.27;;;3.07;;
37097;SDS011;63608;49.572;12.348;2023-04-03T02:22:02;4.00;;;3.80;;
37097;SDS011;63608;49.572;12.348;2023-04-03T02:24:06;3.20;;;3.10;;
37097;SDS011;63608;49.572;12.348;2023-04-03T02:26:14;3.47;;;3.27;;
37097;SDS011;63608;49.572;12.348;2023-04-03T02:28:16;3.50;;;3.40;;
37097;SDS011;63608;49.572;12.348;2023-04-03T02:30:18;3.67;;;3.47;;
37097;SDS011;63608;49.572;12.348;2023-04-03T02:32:20;3.90;;;3.70;;
37097;SDS011;63608;49.572;12.348;2023-04-03T02:34:38;3.70;;;3.50;;
37097;SDS011;63608;49.572;12.348;2023-04-03T02:36:41;3.50;;;3.30;;
37097;SDS011;63608;49.572;12.348;2023-04-03T02:38:45;3.80;;;3.60;;
37097;SDS011;63608;49.572;12.348;2023-04-03T02:40:48;3.40;;;3.20;;
37097;SDS011;63608;49.572;12.348;2023-04-03T02:42:51;3.67;;;3.37;;
37097;SDS011;63608;49.572;12.348;2023-04-03T02:44:53;4.10;;;3.70;;
37097;SDS011;63608;49.572;12.348;2023-04-03T02:46:56;4.10;;;3.80;;
37097;SDS011;63608;49.572;12.348;2023-04-03T02:48:59;3.63;;;3.43;;
37097;SDS011;63608;49.572;12.348;2023-04-03T02:51:02;3.33;;;3.23;;
37097;SDS011;63608;49.572;12.348;2023-04-03T02:53:05;3.60;;;3.40;;
37097;SDS011;63608;49.572;12.348;2023-04-03T02:55:15;4.23;;;3.90;;
37097;SDS011;63608;49.572;12.348;2023-04-03T02:57:20;3.90;;;3.70;;
37097;SDS011;63608;49.572;12.348;2023-04-03T02:59:28;4.50;;;4.10;;
37097;SDS011;63608;49.572;12.348;2023-04-03T03:01:30;4.00;;;3.80;;
37097;SDS011;63608;49.572;12.348;2023-04-03T03:03:33;4.00;;;3.80;;
37097;SDS011;63608;49.572;12.348;2023-04-03T03:05:35;3.93;;;3.40;;
37097;SDS011;63608;49.572;12.348;2023-04-03T03:07:38;3.63;;;3.40;;
37097;SDS011;63608;49.572;12.348;2023-04-03T03:09:41;4.07;;;3.87;;
37097;SDS011;63608;49.572;12.348;2023-04-03T03:11:46;3.80;;;3.60;;
37097;SDS011;63608;49.572;12.348;2023-04-03T03:13:49;4.00;;;3.80;;
37097;SDS011;63608;49.572;12.348;2023-04-03T03:16:01;4.23;;;3.87;;
37097;SDS011;63608;49.572;12.348;2023-04-03T03:18:04;4.00;;;3.80;;
37097;SDS011;63608;49.572;12.348;2023-04-03T03:20:10;4.40;;;4.10;;
37097;SDS011;63608;49.572;12.348;2023-04-03T03:24:37;4.17;;;3.87;;
37097;SDS011;63608;49.572;12.348;2023-04-03T03:26:41;3.77;;;3.50;;
37097;SDS011;63608;49.572;12.348;2023-04-03T03:28:45;4.10;;;3.90;;
37097;SDS011;63608;49.572;12.348;2023-04-03T03:30:47;4.30;;;4.10;;
37097;SDS011;63608;49.572;12.348;2023-04-03T03:32:49;3.87;;;3.67;;
37097;SDS011;63608;49.572;12.348;2023-04-03T03:34:54;4.23;;;3.93;;
37097;SDS011;63608;49.572;12.348;2023-04-03T03:36:58;4.07;;;3.77;;
37097;SDS011;63608;49.572;12.348;2023-04-03T03:39:03;3.50;;;3.40;;
37097;SDS011;63608;49.572;12.348;2023-04-03T03:41:07;4.30;;;4.10;;
37097;SDS011;63608;49.572;12.348;2023-04-03T03:43:09;4.10;;;3.90;;
37097;SDS011;63608;49.572;12.348;2023-04-03T03:45:14;4.23;;;3.90;;
37097;SDS011;63608;49.572;12.348;2023-04-03T03:47:16;4.13;;;3.90;;
37097;SDS011;63608;49.572;12.348;2023-04-03T03:49:22;4.17;;;3.87;;
37097;SDS011;63608;49.572;12.348;2023-04-03T03:51:25;4.03;;;3.60;;
37097;SDS011;63608;49.572;12.348;2023-04-03T03:53:31;3.97;;;3.67;;
37097;SDS011;63608;49.572;12.348;2023-04-03T03:55:34;3.80;;;3.60;;
37097;SDS011;63608;49.572;12.348;2023-04-03T03:57:36;3.80;;;3.60;;
37097;SDS011;63608;49.572;12.348;2023-04-03T03:59:39;4.07;;;3.77;;
37097;SDS011;63608;49.572;12.348;2023-04-03T04:01:46;6.00;;;5.40;;
37097;SDS011;63608;49.572;12.348;2023-04-03T04:03:48;7.50;;;6.70;;
37097;SDS011;63608;49.572;12.348;2023-04-03T04:05:51;7.90;;;7.20;;
37097;SDS011;63608;49.572;12.348;2023-04-03T04:07:54;4.17;;;3.90;;
37097;SDS011;63608;49.572;12.348;2023-04-03T04:10:00;3.90;;;3.70;;
37097;SDS011;63608;49.572;12.348;2023-04-03T04:12:02;3.73;;;3.53;;
37097;SDS011;63608;49.572;12.348;2023-04-03T04:14:07;4.50;;;4.10;;
37097;SDS011;63608;49.572;12.348;2023-04-03T04:16:11;4.57;;;3.87;;
37097;SDS011;63608;49.572;12.348;2023-04-03T04:18:15;4.20;;;3.90;;
37097;SDS011;63608;49.572;12.348;2023-04-03T04:20:35;4.83;;;4.53;;
37097;SDS011;63608;49.572;12.348;2023-04-03T04:22:37;4.23;;;3.90;;
37097;SDS011;63608;49.572;12.348;2023-04-03T04:24:40;4.50;;;4.20;;
37097;SDS011;63608;49.572;12.348;2023-04-03T04:26:44;3.73;;;3.63;;
37097;SDS011;63608;49.572;12.348;2023-04-03T04:28:46;3.80;;;3.60;;
37097;SDS011;63608;49.572;12.348;2023-04-03T04:30:49;3.63;;;3.43;;
37097;SDS011;63608;49.572;12.348;2023-04-03T04:32:51;3.50;;;3.30;;
37097;SDS011;63608;49.572;12.348;2023-04-03T04:34:55;3.93;;;3.63;;
37097;SDS011;63608;49.572;12.348;2023-04-03T04:36:57;4.03;;;3.77;;
37097;SDS011;63608;49.572;12.348;2023-04-03T04:39:00;3.90;;;3.70;;
37097;SDS011;63608;49.572;12.348;2023-04-03T04:41:03;4.17;;;3.97;;
37097;SDS011;63608;49.572;12.348;2023-04-03T04:43:06;3.80;;;3.50;;
37097;SDS011;63608;49.572;12.348;2023-04-03T04:45:11;4.07;;;3.87;;
37097;SDS011;63608;49.572;12.348;2023-04-03T04:47:13;3.70;;;3.40;;
37097;SDS011;63608;49.572;12.348;2023-04-03T04:49:16;3.97;;;3.77;;
37097;SDS011;63608;49.572;12.348;2023-04-03T04:51:20;3.70;;;3.50;;
37097;SDS011;63608;49.572;12.348;2023-04-03T04:53:22;3.70;;;3.43;;
37097;SDS011;63608;49.572;12.348;2023-04-03T04:55:24;4.10;;;3.90;;
37097;SDS011;63608;49.572;12.348;2023-04-03T04:57:27;3.80;;;3.60;;
37097;SDS011;63608;49.572;12.348;2023-04-03T04:59:29;4.00;;;3.70;;
37097;SDS011;63608;49.572;12.348;2023-04-03T05:01:31;3.47;;;3.27;;
37097;SDS011;63608;49.572;12.348;2023-04-03T05:03:33;3.97;;;3.67;;
37097;SDS011;63608;49.572;12.348;2023-04-03T05:05:36;3.97;;;3.73;;
37097;SDS011;63608;49.572;12.348;2023-04-03T05:07:40;3.73;;;3.50;;
37097;SDS011;63608;49.572;12.348;2023-04-03T05:09:45;3.70;;;3.50;;
37097;SDS011;63608;49.572;12.348;2023-04-03T05:11:47;3.57;;;3.37;;
37097;SDS011;63608;49.572;12.348;2023-04-03T05:13:50;3.90;;;3.70;;
37097;SDS011;63608;49.572;12.348;2023-04-03T05:15:53;4.43;;;4.03;;
37097;SDS011;63608;49.572;12.348;2023-04-03T05:17:57;13.77;;;12.30;;
37097;SDS011;63608;49.572;12.348;2023-04-03T05:19:59;7.70;;;7.00;;
37097;SDS011;63608;49.572;12.348;2023-04-03T05:22:02;4.10;;;3.80;;
37097;SDS011;63608;49.572;12.348;2023-04-03T05:24:09;10.10;;;7.60;;
37097;SDS011;63608;49.572;12.348;2023-04-03T05:26:11;6.13;;;5.60;;
37097;SDS011;63608;49.572;12.348;2023-04-03T05:28:14;8.50;;;7.70;;
37097;SDS011;63608;49.572;12.348;2023-04-03T05:30:17;11.67;;;10.47;;
37097;SDS011;63608;49.572;12.348;2023-04-03T05:32:19;17.17;;;13.97;;
37097;SDS011;63608;49.572;12.348;2023-04-03T05:34:22;12.60;;;11.40;;
37097;SDS011;63608;49.572;12.348;2023-04-03T05:36:25;11.00;;;9.90;;
37097;SDS011;63608;49.572;12.348;2023-04-03T05:38:27;9.27;;;8.47;;
37097;SDS011;63608;49.572;12.348;2023-04-03T05:40:32;12.70;;;11.40;;
37097;SDS011;63608;49.572;12.348;2023-04-03T05:42:34;24.20;;;17.27;;
37097;SDS011;63608;49.572;12.348;2023-04-03T05:44:37;19.73;;;17.37;;
37097;SDS011;63608;49.572;12.348;2023-04-03T05:46:50;12.40;;;9.97;;
37097;SDS011;63608;49.572;12.348;2023-04-03T05:48:52;17.33;;;14.00;;
37097;SDS011;63608;49.572;12.348;2023-04-03T05:50:57;11.57;;;9.80;;
37097;SDS011;63608;49.572;12.348;2023-04-03T05:53:00;12.10;;;9.47;;
37097;SDS011;63608;49.572;12.348;2023-04-03T05:55:05;13.67;;;11.70;;
37097;SDS011;63608;49.572;12.348;2023-04-03T05:59:46;9.00;;;8.10;;
37097;SDS011;63608;49.572;12.348;2023-04-03T06:01:49;7.37;;;6.77;;
37097;SDS011;63608;49.572;12.348;2023-04-03T06:03:53;11.97;;;7.77;;
37097;SDS011;63608;49.572;12.348;2023-04-03T06:05:58;7.37;;;6.70;;
37097;SDS011;63608;49.572;12.348;2023-04-03T06:08:01;7.10;;;6.43;;
37097;SDS011;63608;49.572;12.348;2023-04-03T06:10:04;6.37;;;5.73;;
37097;SDS011;63608;49.572;12.348;2023-04-03T06:12:07;6.00;;;5.50;;
37097;SDS011;63608;49.572;12.348;2023-04-03T06:14:12;6.40;;;5.90;;
37097;SDS011;63608;49.572;12.348;2023-04-03T06:16:14;7.63;;;6.80;;
37097;SDS011;63608;49.572;12.348;2023-04-03T06:18:17;10.83;;;6.60;;
37097;SDS011;63608;49.572;12.348;2023-04-03T06:20:19;6.80;;;6.10;;
37097;SDS011;63608;49.572;12.348;2023-04-03T06:22:26;7.40;;;6.70;;
37097;SDS011;63608;49.572;12.348;2023-04-03T06:24:30;6.57;;;6.07;;
37097;SDS011;63608;49.572;12.348;2023-04-03T06:26:33;7.13;;;6.20;;
37097;SDS011;63608;49.572;12.348;2023-04-03T06:28:36;6.10;;;5.60;;
37097;SDS011;63608;49.572;12.348;2023-04-03T06:30:40;7.53;;;5.73;;
37097;SDS011;63608;49.572;12.348;2023-04-03T06:32:45;6.00;;;5.50;;
37097;SDS011;63608;49.572;12.348;2023-04-03T06:34:50;5.63;;;5.20;;
37097;SDS011;63608;49.572;12.348;2023-04-03T06:36:54;6.10;;;5.60;;
37097;SDS011;63608;49.572;12.348;2023-04-03T06:38:56;7.10;;;5.60;;
37097;SDS011;63608;49.572;12.348;2023-04-03T06:40:59;6.17;;;5.53;;
37097;SDS011;63608;49.572;12.348;2023-04-03T06:43:01;5.90;;;5.40;;
37097;SDS011;63608;49.572;12.348;2023-04-03T06:45:04;5.47;;;5.07;;
37097;SDS011;63608;49.572;12.348;2023-04-03T06:47:12;6.77;;;5.40;;
37097;SDS011;63608;49.572;12.348;2023-04-03T06:49:15;4.97;;;4.57;;
37097;SDS011;63608;49.572;12.348;2023-04-03T06:51:18;7.17;;;5.07;;
37097;SDS011;63608;49.572;12.348;2023-04-03T06:53:24;4.93;;;4.50;;
37097;SDS011;63608;49.572;12.348;2023-04-03T06:55:27;4.73;;;4.37;;
37097;SDS011;63608;49.572;12.348;2023-04-03T06:57:34;5.17;;;4.47;;
37097;SDS011;63608;49.572;12.348;2023-04-03T06:59:40;4.20;;;3.93;;
37097;SDS011;63608;49.572;12.348;2023-04-03T07:01:43;8.03;;;4.23;;
37097;SDS011;63608;49.572;12.348;2023-04-03T07:03:49;5.03;;;4.53;;
37097;SDS011;63608;49.572;12.348;2023-04-03T07:06:01;5.77;;;4.47;;
37097;SDS011;63608;49.572;12.348;2023-04-03T07:08:04;3.90;;;3.63;;
37097;SDS011;63608;49.572;12.348;2023-04-03T07:10:11;4.00;;;3.70;;
37097;SDS011;63608;49.572;12.348;2023-04-03T07:12:15;3.93;;;3.63;;
37097;SDS011;63608;49.572;12.348;2023-04-03T07:14:18;3.90;;;3.60;;
37097;SDS011;63608;49.572;12.348;2023-04-03T07:16:21;4.00;;;3.43;;
37097;SDS011;63608;49.572;12.348;2023-04-03T07:18:24;4.00;;;3.60;;
37097;SDS011;63608;49.572;12.348;2023-04-03T07:20:28;3.83;;;3.43;;
37097;SDS011;63608;49.572;12.348;2023-04-03T07:22:30;3.80;;;3.60;;
37097;SDS011;63608;49.572;12.348;2023-04-03T07:24:33;5.23;;;4.10;;
37097;SDS011;63608;49.572;12.348;2023-04-03T07:26:37;4.07;;;3.77;;
37097;SDS011;63608;49.572;12.348;2023-04-03T07:28:39;4.77;;;4.33;;
37097;SDS011;63608;49.572;12.348;2023-04-03T07:30:44;4.77;;;4.00;;
37097;SDS011;63608;49.572;12.348;2023-04-03T07:32:49;2.80;;;2.60;;
37097;SDS011;63608;49.572;12.348;2023-04-03T07:34:51;2.20;;;2.03;;
37097;SDS011;63608;49.572;12.348;2023-04-03T07:36:55;2.57;;;2.20;;
37097;SDS011;63608;49.572;12.348;2023-04-03T07:38:58;3.10;;;2.00;;
37097;SDS011;63608;49.572;12.348;2023-04-03T07:41:00;2.63;;;2.27;;
37097;SDS011;63608;49.572;12.348;2023-04-03T07:43:03;2.40;;;2.20;;
37097;SDS011;63608;49.572;12.348;2023-04-03T07:45:06;2.40;;;2.20;;
37097;SDS011;63608;49.572;12.348;2023-04-03T07:47:09;1.93;;;1.83;;
37097;SDS011;63608;49.572;12.348;2023-04-03T07:49:13;2.03;;;1.90;;
37097;SDS011;63608;49.572;12.348;2023-04-03T07:51:16;2.77;;;2.00;;
37097;SDS011;63608;49.572;12.348;2023-04-03T07:53:21;2.00;;;1.90;;
37097;SDS011;63608;49.572;12.348;2023-04-03T07:55:23;2.17;;;1.77;;
37097;SDS011;63608;49.572;12.348;2023-04-03T07:57:26;1.70;;;1.60;;
37097;SDS011;63608;49.572;12.348;2023-04-03T07:59:29;1.77;;;1.67;;
37097;SDS011;63608;49.572;12.348;2023-04-03T08:01:32;2.30;;;1.73;;
37097;SDS011;63608;49.572;12.348;2023-04-03T08:03:34;2.03;;;1.80;;
37097;SDS011;63608;49.572;12.348;2023-04-03T08:05:39;2.00;;;1.90;;
37097;SDS011;63608;49.572;12.348;2023-04-03T08:07:42;2.07;;;1.90;;
37097;SDS011;63608;49.572;12.348;2023-04-03T08:09:47;1.80;;;1.70;;
37097;SDS011;63608;49.572;12.348;2023-04-03T08:11:51;2.37;;;2.27;;
37097;SDS011;63608;49.572;12.348;2023-04-03T08:13:54;2.57;;;2.20;;
37097;SDS011;63608;49.572;12.348;2023-04-03T08:15:56;1.90;;;1.80;;
37097;SDS011;63608;49.572;12.348;2023-04-03T08:17:59;3.87;;;2.07;;
37097;SDS011;63608;49.572;12.348;2023-04-03T08:20:02;2.13;;;1.90;;
37097;SDS011;63608;49.572;12.348;2023-04-03T08:22:22;3.90;;;1.83;;
37097;SDS011;63608;49.572;12.348;2023-04-03T08:24:24;2.23;;;2.00;;
37097;SDS011;63608;49.572;12.348;2023-04-03T08:26:33;2.03;;;1.90;;
37097;SDS011;63608;49.572;12.348;2023-04-03T08:28:35;1.80;;;1.70;;
37097;SDS011;63608;49.572;12.348;2023-04-03T08:30:38;2.17;;;1.97;;
37097;SDS011;63608;49.572;12.348;2023-04-03T08:32:42;1.90;;;1.80;;
37097;SDS011;63608;49.572;12.348;2023-04-03T08:34:45;2.70;;;2.33;;
37097;SDS011;63608;49.572;12.348;2023-04-03T08:36:48;1.87;;;1.77;;
37097;SDS011;63608;49.572;12.348;2023-04-03T08:38:50;2.50;;;2.30;;
37097;SDS011;63608;49.572;12.348;2023-04-03T08:41:00;2.80;;;2.63;;
37097;SDS011;63608;49.572;12.348;2023-04-03T08:43:14;3.10;;;2.80;;
37097;SDS011;63608;49.572;12.348;2023-04-03T08:45:33;4.37;;;1.80;;
37097;SDS011;63608;49.572;12.348;2023-04-03T08:47:40;1.73;;;1.63;;
37097;SDS011;63608;49.572;12.348;2023-04-03T08:49:47;2.33;;;1.80;;
37097;SDS011;63608;49.572;12.348;2023-04-03T08:51:51;2.40;;;2.20;;
37097;SDS011;63608;49.572;12.348;2023-04-03T08:53:55;2.07;;;1.90;;
37097;SDS011;63608;49.572;12.348;2023-04-03T08:56:00;4.13;;;2.40;;
37097;SDS011;63608;49.572;12.348;2023-04-03T08:58:05;2.63;;;2.43;;
37097;SDS011;63608;49.572;12.348;2023-04-03T09:00:14;1.80;;;1.70;;
37097;SDS011;63608;49.572;12.348;2023-04-03T09:02:23;2.33;;;2.10;;
37097;SDS011;63608;49.572;12.348;2023-04-03T09:04:30;2.43;;;1.80;;
37097;SDS011;63608;49.572;12.348;2023-04-03T09:06:35;7.10;;;5.27;;
37097;SDS011;63608;49.572;12.348;2023-04-03T09:08:40;1.87;;;1.77;;
37097;SDS011;63608;49.572;12.348;2023-04-03T09:10:45;3.97;;;3.67;;
37097;SDS011;63608;49.572;12.348;2023-04-03T09:12:51;1.70;;;1.60;;
37097;SDS011;63608;49.572;12.348;2023-04-03T09:14:59;1.60;;;1.50;;
37097;SDS011;63608;49.572;12.348;2023-04-03T09:17:11;1.40;;;1.30;;
37097;SDS011;63608;49.572;12.348;2023-04-03T09:19:22;1.47;;;1.40;;
37097;SDS011;63608;49.572;12.348;2023-04-03T09:21:34;1.43;;;1.33;;
37097;SDS011;63608;49.572;12.348;2023-04-03T09:23:43;1.53;;;1.43;;
37097;SDS011;63608;49.572;12.348;2023-04-03T09:25:51;1.53;;;1.43;;
37097;SDS011;63608;49.572;12.348;2023-04-03T09:28:00;1.43;;;1.33;;
37097;SDS011;63608;49.572;12.348;2023-04-03T09:30:12;1.60;;;1.50;;
37097;SDS011;63608;49.572;12.348;2023-04-03T09:32:21;4.73;;;1.50;;
37097;SDS011;63608;49.572;12.348;2023-04-03T09:34:28;1.60;;;1.50;;
37097;SDS011;63608;49.572;12.348;2023-04-03T09:36:37;2.30;;;1.47;;
37097;SDS011;63608;49.572;12.348;2023-04-03T09:38:41;2.13;;;1.50;;
37097;SDS011;63608;49.572;12.348;2023-04-03T09:40:44;1.67;;;1.57;;
37097;SDS011;63608;49.572;12.348;2023-04-03T09:42:47;1.60;;;1.50;;
37097;SDS011;63608;49.572;12.348;2023-04-03T09:44:53;7.57;;;1.60;;
37097;SDS011;63608;49.572;12.348;2023-04-03T09:46:57;1.80;;;1.40;;
37097;SDS011;63608;49.572;12.348;2023-04-03T09:49:09;1.40;;;1.30;;
37097;SDS011;63608;49.572;12.348;2023-04-03T09:51:13;3.03;;;1.80;;
37097;SDS011;63608;49.572;12.348;2023-04-03T09:53:24;1.50;;;1.40;;
37097;SDS011;63608;49.572;12.348;2023-04-03T09:55:29;1.67;;;1.40;;
37097;SDS011;63608;49.572;12.348;2023-04-03T09:57:32;1.40;;;1.30;;
37097;SDS011;63608;49.572;12.348;2023-04-03T09:59:35;1.43;;;1.27;;
37097;SDS011;63608;49.572;12.348;2023-04-03T10:01:39;1.63;;;1.53;;
37097;SDS011;63608;49.572;12.348;2023-04-03T10:03:43;2.70;;;1.50;;
37097;SDS011;63608;49.572;12.348;2023-04-03T10:05:48;2.00;;;1.30;;
37097;SDS011;63608;49.572;12.348;2023-04-03T10:07:51;2.90;;;1.40;;
37097;SDS011;63608;49.572;12.348;2023-04-03T10:10:00;1.37;;;1.27;;
37097;SDS011;63608;49.572;12.348;2023-04-03T10:12:05;1.40;;;1.30;;
37097;SDS011;63608;49.572;12.348;2023-04-03T10:14:16;1.27;;;1.27;;
37097;SDS011;63608;49.572;12.348;2023-04-03T10:16:21;1.50;;;1.30;;
37097;SDS011;63608;49.572;12.348;2023-04-03T10:18:29;1.00;;;1.00;;
37097;SDS011;63608;49.572;12.348;2023-04-03T10:20:34;2.00;;;1.20;;
37097;SDS011;63608;49.572;12.348;2023-04-03T10:22:42;1.50;;;1.40;;
37097;SDS011;63608;49.572;12.348;2023-04-03T10:24:52;1.50;;;1.40;;
37097;SDS011;63608;49.572;12.348;2023-04-03T10:27:01;1.57;;;1.47;;
37097;SDS011;63608;49.572;12.348;2023-04-03T10:29:10;2.23;;;1.30;;
37097;SDS011;63608;49.572;12.348;2023-04-03T10:31:22;1.90;;;1.80;;
37097;SDS011;63608;49.572;12.348;2023-04-03T10:33:30;1.70;;;1.40;;
37097;SDS011;63608;49.572;12.348;2023-04-03T10:35:41;2.07;;;1.87;;
37097;SDS011;63608;49.572;12.348;2023-04-03T10:37:54;1.50;;;1.40;;
37097;SDS011;63608;49.572;12.348;2023-04-03T10:40:05;1.87;;;1.43;;
37097;SDS011;63608;49.572;12.348;2023-04-03T10:42:18;1.37;;;1.27;;
37097;SDS011;63608;49.572;12.348;2023-04-03T10:44:29;3.33;;;1.30;;
37097;SDS011;63608;49.572;12.348;2023-04-03T10:46:35;1.20;;;1.10;;
37097;SDS011;63608;49.572;12.348;2023-04-03T10:48:50;1.27;;;1.27;;
37097;SDS011;63608;49.572;12.348;2023-04-03T10:50:58;1.53;;;1.43;;
37097;SDS011;63608;49.572;12.348;2023-04-03T10:53:06;3.83;;;1.40;;
37097;SDS011;63608;49.572;12.348;2023-04-03T10:55:16;1.57;;;1.30;;
37097;SDS011;63608;49.572;12.348;2023-04-03T10:57:24;1.40;;;1.30;;
37097;SDS011;63608;49.572;12.348;2023-04-03T10:59:28;1.47;;;1.37;;
37097;SDS011;63608;49.572;12.348;2023-04-03T11:01:34;2.10;;;1.43;;
37097;SDS011;63608;49.572;12.348;2023-04-03T11:03:40;1.40;;;1.30;;
37097;SDS011;63608;49.572;12.348;2023-04-03T11:05:47;1.40;;;1.30;;
37097;SDS011;63608;49.572;12.348;2023-04-03T11:07:51;1.60;;;1.40;;
37097;SDS011;63608;49.572;12.348;2023-04-03T11:09:57;1.70;;;1.40;;
37097;SDS011;63608;49.572;12.348;2023-04-03T11:12:05;1.23;;;1.23;;
37097;SDS011;63608;49.572;12.348;2023-04-03T11:14:14;2.23;;;1.60;;
37097;SDS011;63608;49.572;12.348;2023-04-03T11:16:21;1.70;;;1.60;;
37097;SDS011;63608;49.572;12.348;2023-04-03T11:18:26;2.03;;;1.60;;
37097;SDS011;63608;49.572;12.348;2023-04-03T11:20:33;1.70;;;1.60;;
37097;SDS011;63608;49.572;12.348;2023-04-03T11:22:41;1.70;;;1.60;;
37097;SDS011;63608;49.572;12.348;2023-04-03T11:24:46;1.60;;;1.50;;
37097;SDS011;63608;49.572;12.348;2023-04-03T11:27:00;4.60;;;1.83;;
37097;SDS011;63608;49.572;12.348;2023-04-03T11:29:05;1.50;;;1.40;;
37097;SDS011;63608;49.572;12.348;2023-04-03T11:31:15;2.57;;;2.17;;
37097;SDS011;63608;49.572;12.348;2023-04-03T11:33:28;1.53;;;1.43;;
37097;SDS011;63608;49.572;12.348;2023-04-03T11:35:37;1.57;;;1.50;;
37097;SDS011;63608;49.572;12.348;2023-04-03T11:37:45;2.90;;;1.50;;
37097;SDS011;63608;49.572;12.348;2023-04-03T11:39:51;1.30;;;1.30;;
37097;SDS011;63608;49.572;12.348;2023-04-03T11:41:55;1.67;;;1.57;;
37097;SDS011;63608;49.572;12.348;2023-04-03T11:44:00;1.40;;;1.30;;
37097;SDS011;63608;49.572;12.348;2023-04-03T11:46:04;1.57;;;1.47;;
37097;SDS011;63608;49.572;12.348;2023-04-03T11:48:41;2.70;;;1.40;;
37097;SDS011;63608;49.572;12.348;2023-04-03T11:50:49;1.63;;;1.40;;
37097;SDS011;63608;49.572;12.348;2023-04-03T11:52:55;1.40;;;1.40;;
37097;SDS011;63608;49.572;12.348;2023-04-03T11:54:59;1.40;;;1.30;;
37097;SDS011;63608;49.572;12.348;2023-04-03T11:59:37;2.13;;;1.40;;
37097;SDS011;63608;49.572;12.348;2023-04-03T12:01:43;1.60;;;1.50;;
37097;SDS011;63608;49.572;12.348;2023-04-03T12:04:05;1.40;;;1.30;;
37097;SDS011;63608;49.572;12.348;2023-04-03T12:08:45;1.70;;;1.60;;
37097;SDS011;63608;49.572;12.348;2023-04-03T12:13:16;1.67;;;1.57;;
37097;SDS011;63608;49.572;12.348;2023-04-03T12:15:23;1.30;;;1.20;;
37097;SDS011;63608;49.572;12.348;2023-04-03T12:17:40;1.60;;;1.50;;
37097;SDS011;63608;49.572;12.348;2023-04-03T12:19:47;1.50;;;1.40;;
37097;SDS011;63608;49.572;12.348;2023-04-03T12:22:09;1.63;;;1.53;;
37097;SDS011;63608;49.572;12.348;2023-04-03T12:24:25;1.50;;;1.40;;
37097;SDS011;63608;49.572;12.348;2023-04-03T12:26:30;1.43;;;1.33;;
37097;SDS011;63608;49.572;12.348;2023-04-03T12:28:36;1.60;;;1.50;;
37097;SDS011;63608;49.572;12.348;2023-04-03T12:30:39;1.60;;;1.50;;
37097;SDS011;63608;49.572;12.348;2023-04-03T12:35:31;1.80;;;1.70;;
37097;SDS011;63608;49.572;12.348;2023-04-03T12:37:39;1.53;;;1.43;;
37097;SDS011;63608;49.572;12.348;2023-04-03T12:39:58;1.50;;;1.40;;
37097;SDS011;63608;49.572;12.348;2023-04-03T12:42:08;3.47;;;1.90;;
37097;SDS011;63608;49.572;12.348;2023-04-03T12:44:34;1.87;;;1.77;;